sensor_id;sensor_type;location;lat;lon;timestamp;pressure;altitude;pressure_sealevel;temperature;humidity
25232;BME280;13176;51.140;6.290;2023-04-06T00:01:49;101107.69;;;9.01;53.11
25232;BME280;13176;51.140;6.290;2023-04-06T00:04:15;101114.63;;;8.96;53.12
25232;BME280;13176;51.140;6.290;2023-04-06T00:06:42;101059.13;;;8.63;53.02
25232;BME280;13176;51.140;6.290;2023-04-06T00:09:08;101100.75;;;8.85;53.12
25232;BME280;13176;51.140;6.290;2023-04-06T00:11:35;101077.34;;;8.73;52.86
25232;BME280;13176;51.140;6.290;2023-04-06T00:14:01;101107.69;;;8.89;52.89
25232;BME280;13176;51.140;6.290;2023-04-06T00:16:27;101130.25;;;9.02;52.51
25232;BME280;13176;51.140;6.290;2023-04-06T00:18:56;101091.22;;;8.80;52.97
25232;BME280;13176;51.140;6.290;2023-04-06T00:21:22;101108.56;;;8.78;52.91
25232;BME280;13176;51.140;6.290;2023-04-06T00:23:49;101040.94;;;8.39;52.69
25232;BME280;13176;51.140;6.290;2023-04-06T00:26:15;101073.88;;;8.53;53.47
25232;BME280;13176;51.140;6.290;2023-04-06T00:28:41;101080.78;;;8.62;52.44
25232;BME280;13176;51.140;6.290;2023-04-06T00:31:08;101058.25;;;8.47;52.76
25232;BME280;13176;51.140;6.290;2023-04-06T00:33:34;101113.75;;;8.75;53.19
25232;BME280;13176;51.140;6.290;2023-04-06T00:36:00;101125.03;;;8.60;53.65
25232;BME280;13176;51.140;6.290;2023-04-06T00:38:27;101085.13;;;8.34;54.32
25232;BME280;13176;51.140;6.290;2023-04-06T00:40:53;101086.84;;;8.29;55.22
25232;BME280;13176;51.140;6.290;2023-04-06T00:43:20;101054.75;;;8.11;55.32
25232;BME280;13176;51.140;6.290;2023-04-06T00:45:46;101067.81;;;8.33;54.19
25232;BME280;13176;51.140;6.290;2023-04-06T00:48:13;101064.31;;;8.40;53.21
25232;BME280;13176;51.140;6.290;2023-04-06T00:50:39;101087.72;;;8.36;54.05
25232;BME280;13176;51.140;6.290;2023-04-06T00:53:07;101082.53;;;8.37;53.67
25232;BME280;13176;51.140;6.290;2023-04-06T00:55:33;101074.72;;;8.43;53.40
25232;BME280;13176;51.140;6.290;2023-04-06T00:58:02;101099.00;;;8.45;54.39
25232;BME280;13176;51.140;6.290;2023-04-06T01:00:28;101067.72;;;8.15;55.66
25232;BME280;13176;51.140;6.290;2023-04-06T01:02:55;101065.09;;;8.02;55.53
25232;BME280;13176;51.140;6.290;2023-04-06T01:05:21;101029.53;;;7.73;54.82
25232;BME280;13176;51.140;6.290;2023-04-06T01:07:48;101025.25;;;7.89;55.21
25232;BME280;13176;51.140;6.290;2023-04-06T01:10:25;101067.75;;;8.14;55.35
25232;BME280;13176;51.140;6.290;2023-04-06T01:12:51;101065.13;;;8.11;54.99
25232;BME280;13176;51.140;6.290;2023-04-06T01:15:18;101040.00;;;7.96;54.80
25232;BME280;13176;51.140;6.290;2023-04-06T01:17:45;101046.94;;;7.97;54.96
25232;BME280;13176;51.140;6.290;2023-04-06T01:20:11;101052.97;;;7.96;54.53
25232;BME280;13176;51.140;6.290;2023-04-06T01:22:38;101029.56;;;7.82;54.69
25232;BME280;13176;51.140;6.290;2023-04-06T01:25:04;101027.84;;;7.84;54.59
25232;BME280;13176;51.140;6.290;2023-04-06T01:27:31;101029.53;;;7.79;55.73
25232;BME280;13176;51.140;6.290;2023-04-06T01:29:58;100988.84;;;7.72;55.14
25232;BME280;13176;51.140;6.290;2023-04-06T01:32:25;101020.03;;;7.81;54.45
25232;BME280;13176;51.140;6.290;2023-04-06T01:34:51;101015.72;;;7.83;54.47
25232;BME280;13176;51.140;6.290;2023-04-06T01:37:18;101022.66;;;7.91;54.10
25232;BME280;13176;51.140;6.290;2023-04-06T01:39:44;101013.09;;;7.80;54.98
25232;BME280;13176;51.140;6.290;2023-04-06T01:42:11;100991.41;;;7.66;54.37
25232;BME280;13176;51.140;6.290;2023-04-06T01:44:37;101011.38;;;7.79;54.38
25232;BME280;13176;51.140;6.290;2023-04-06T01:47:04;101045.94;;;7.66;55.99
25232;BME280;13176;51.140;6.290;2023-04-06T01:49:30;101018.94;;;7.19;57.34
25232;BME280;13176;51.140;6.290;2023-04-06T01:51:57;101038.09;;;7.45;57.06
25232;BME280;13176;51.140;6.290;2023-04-06T01:54:23;101001.75;;;7.45;57.14
25232;BME280;13176;51.140;6.290;2023-04-06T01:56:50;100990.53;;;7.59;57.07
25232;BME280;13176;51.140;6.290;2023-04-06T01:59:17;100994.91;;;7.74;55.79
25232;BME280;13176;51.140;6.290;2023-04-06T02:01:44;101003.56;;;7.64;56.27
25232;BME280;13176;51.140;6.290;2023-04-06T02:04:10;101012.19;;;7.69;56.44
25232;BME280;13176;51.140;6.290;2023-04-06T02:06:36;100963.66;;;7.41;55.79
25232;BME280;13176;51.140;6.290;2023-04-06T02:09:03;101010.38;;;7.41;57.31
25232;BME280;13176;51.140;6.290;2023-04-06T02:11:29;100987.81;;;7.22;57.05
25232;BME280;13176;51.140;6.290;2023-04-06T02:13:56;101033.72;;;7.35;58.13
25232;BME280;13176;51.140;6.290;2023-04-06T02:16:22;100932.34;;;6.90;57.54
25232;BME280;13176;51.140;6.290;2023-04-06T02:18:49;101031.16;;;7.41;57.69
25232;BME280;13176;51.140;6.290;2023-04-06T02:21:16;101008.59;;;7.31;57.40
25232;BME280;13176;51.140;6.290;2023-04-06T02:23:46;101004.31;;;7.42;57.19
25232;BME280;13176;51.140;6.290;2023-04-06T02:26:13;100991.31;;;7.24;57.16
25232;BME280;13176;51.140;6.290;2023-04-06T02:28:41;101004.97;;;6.96;58.93
25232;BME280;13176;51.140;6.290;2023-04-06T02:31:08;100947.69;;;6.51;59.42
25232;BME280;13176;51.140;6.290;2023-04-06T02:33:34;101015.34;;;6.96;58.88
25232;BME280;13176;51.140;6.290;2023-04-06T02:36:00;101005.84;;;6.96;58.96
25232;BME280;13176;51.140;6.290;2023-04-06T02:38:27;100984.13;;;6.78;59.58
25232;BME280;13176;51.140;6.290;2023-04-06T02:40:53;100997.97;;;6.77;59.87
25232;BME280;13176;51.140;6.290;2023-04-06T02:43:20;100975.25;;;6.42;60.65
25232;BME280;13176;51.140;6.290;2023-04-06T02:45:46;101005.63;;;6.62;61.53
25232;BME280;13176;51.140;6.290;2023-04-06T02:48:13;101001.34;;;6.67;60.36
25232;BME280;13176;51.140;6.290;2023-04-06T02:50:40;100999.63;;;6.69;59.40
25232;BME280;13176;51.140;6.290;2023-04-06T02:53:06;100990.94;;;6.61;59.91
25232;BME280;13176;51.140;6.290;2023-04-06T02:55:32;100957.31;;;6.73;59.18
25232;BME280;13176;51.140;6.290;2023-04-06T02:57:59;100961.66;;;6.74;58.30
25232;BME280;13176;51.140;6.290;2023-04-06T03:00:25;100906.16;;;6.39;59.19
25232;BME280;13176;51.140;6.290;2023-04-06T03:02:52;100999.78;;;6.90;58.83
25232;BME280;13176;51.140;6.290;2023-04-06T03:05:18;100995.44;;;6.92;59.16
25232;BME280;13176;51.140;6.290;2023-04-06T03:07:45;100940.91;;;6.73;58.91
25232;BME280;13176;51.140;6.290;2023-04-06T03:10:11;100958.28;;;6.93;58.67
25232;BME280;13176;51.140;6.290;2023-04-06T03:12:38;100988.56;;;7.00;58.83
25232;BME280;13176;51.140;6.290;2023-04-06T03:15:04;100982.50;;;6.96;57.76
25232;BME280;13176;51.140;6.290;2023-04-06T03:17:31;100935.63;;;6.62;58.08
25232;BME280;13176;51.140;6.290;2023-04-06T03:19:57;100942.56;;;6.63;58.73
25232;BME280;13176;51.140;6.290;2023-04-06T03:22:24;100935.72;;;6.74;57.92
25232;BME280;13176;51.140;6.290;2023-04-06T03:24:50;100966.06;;;6.91;58.21
25232;BME280;13176;51.140;6.290;2023-04-06T03:27:16;100956.56;;;6.93;57.08
25232;BME280;13176;51.140;6.290;2023-04-06T03:29:43;100946.09;;;6.74;58.25
25232;BME280;13176;51.140;6.290;2023-04-06T03:32:09;100989.38;;;6.87;58.63
25232;BME280;13176;51.140;6.290;2023-04-06T03:34:37;100952.94;;;6.66;57.60
25232;BME280;13176;51.140;6.290;2023-04-06T03:37:03;100983.31;;;6.82;58.44
25232;BME280;13176;51.140;6.290;2023-04-06T03:39:35;100993.69;;;6.85;58.78
25232;BME280;13176;51.140;6.290;2023-04-06T03:42:02;100973.81;;;6.87;58.08
25232;BME280;13176;51.140;6.290;2023-04-06T03:44:28;100951.34;;;6.83;58.33
25232;BME280;13176;51.140;6.290;2023-04-06T03:46:55;100919.28;;;6.72;58.00
25232;BME280;13176;51.140;6.290;2023-04-06T03:49:21;100968.69;;;6.97;58.39
25232;BME280;13176;51.140;6.290;2023-04-06T03:51:48;100947.06;;;6.91;59.05
25232;BME280;13176;51.140;6.290;2023-04-06T03:54:14;100996.50;;;7.24;59.03
25232;BME280;13176;51.140;6.290;2023-04-06T03:56:41;100962.69;;;7.07;58.94
25232;BME280;13176;51.140;6.290;2023-04-06T03:59:07;100928.88;;;6.94;58.28
25232;BME280;13176;51.140;6.290;2023-04-06T04:01:34;100930.59;;;6.92;58.83
25232;BME280;13176;51.140;6.290;2023-04-06T04:04:00;100935.81;;;6.98;58.35
25232;BME280;13176;51.140;6.290;2023-04-06T04:06:27;100938.34;;;6.80;58.61
25232;BME280;13176;51.140;6.290;2023-04-06T04:08:53;100889.88;;;6.66;59.30
25232;BME280;13176;51.140;6.290;2023-04-06T04:11:19;100970.50;;;7.15;58.76
25232;BME280;13176;51.140;6.290;2023-04-06T04:13:46;100962.72;;;7.18;58.38
25232;BME280;13176;51.140;6.290;2023-04-06T04:16:12;100945.41;;;7.06;58.54
25232;BME280;13176;51.140;6.290;2023-04-06T04:18:39;100977.47;;;7.29;58.27
25232;BME280;13176;51.140;6.290;2023-04-06T04:21:05;100987.91;;;7.46;58.46
25232;BME280;13176;51.140;6.290;2023-04-06T04:23:31;100934.22;;;7.24;58.05
25232;BME280;13176;51.140;6.290;2023-04-06T04:25:58;100970.59;;;7.42;58.14
25232;BME280;13176;51.140;6.290;2023-04-06T04:28:24;100937.69;;;7.26;57.76
25232;BME280;13176;51.140;6.290;2023-04-06T04:30:51;100933.31;;;7.20;58.27
25232;BME280;13176;51.140;6.290;2023-04-06T04:33:17;100961.91;;;7.28;59.00
25232;BME280;13176;51.140;6.290;2023-04-06T04:35:43;100945.44;;;7.21;58.81
25232;BME280;13176;51.140;6.290;2023-04-06T04:38:10;100997.34;;;7.29;58.59
25232;BME280;13176;51.140;6.290;2023-04-06T04:40:36;100968.78;;;7.20;58.44
25232;BME280;13176;51.140;6.290;2023-04-06T04:43:02;100994.81;;;7.44;58.27
25232;BME280;13176;51.140;6.290;2023-04-06T04:45:29;100984.34;;;7.17;58.91
25232;BME280;13176;51.140;6.290;2023-04-06T04:47:55;100942.72;;;6.90;58.52
25232;BME280;13176;51.140;6.290;2023-04-06T04:50:22;100853.47;;;6.43;58.38
25232;BME280;13176;51.140;6.290;2023-04-06T04:52:48;100960.13;;;7.15;58.55
25232;BME280;13176;51.140;6.290;2023-04-06T04:55:15;100967.13;;;7.43;58.09
25232;BME280;13176;51.140;6.290;2023-04-06T04:57:41;100971.47;;;7.47;57.87
25232;BME280;13176;51.140;6.290;2023-04-06T05:00:08;100970.53;;;7.30;58.25
25232;BME280;13176;51.140;6.290;2023-04-06T05:02:35;100992.22;;;7.44;58.33
25232;BME280;13176;51.140;6.290;2023-04-06T05:05:01;100873.53;;;6.83;59.00
25232;BME280;13176;51.140;6.290;2023-04-06T05:07:28;100978.41;;;7.52;58.52
25232;BME280;13176;51.140;6.290;2023-04-06T05:09:54;100941.97;;;7.22;58.50
25232;BME280;13176;51.140;6.290;2023-04-06T05:12:20;100958.44;;;7.26;59.11
25232;BME280;13176;51.140;6.290;2023-04-06T05:14:47;100957.56;;;7.33;59.78
25232;BME280;13176;51.140;6.290;2023-04-06T05:17:14;100950.69;;;7.36;59.07
25232;BME280;13176;51.140;6.290;2023-04-06T05:19:40;100933.38;;;7.37;59.11
25232;BME280;13176;51.140;6.290;2023-04-06T05:22:06;100969.78;;;7.61;59.88
25232;BME280;13176;51.140;6.290;2023-04-06T05:24:33;100943.78;;;7.49;59.59
25232;BME280;13176;51.140;6.290;2023-04-06T05:27:01;100957.66;;;7.60;59.20
25232;BME280;13176;51.140;6.290;2023-04-06T05:29:28;100979.31;;;7.71;59.53
25232;BME280;13176;51.140;6.290;2023-04-06T05:31:55;100973.28;;;7.73;59.08
25232;BME280;13176;51.140;6.290;2023-04-06T05:34:22;100910.03;;;7.43;58.97
25232;BME280;13176;51.140;6.290;2023-04-06T05:36:48;100989.75;;;7.91;58.68
25232;BME280;13176;51.140;6.290;2023-04-06T05:39:15;100906.56;;;7.44;59.12
25232;BME280;13176;51.140;6.290;2023-04-06T05:41:41;100915.28;;;7.61;59.62
25232;BME280;13176;51.140;6.290;2023-04-06T05:44:07;100902.28;;;7.52;59.50
25232;BME280;13176;51.140;6.290;2023-04-06T05:46:34;100899.69;;;7.58;58.98
25232;BME280;13176;51.140;6.290;2023-04-06T05:49:00;100987.16;;;8.09;58.18
25232;BME280;13176;51.140;6.290;2023-04-06T05:51:27;100982.84;;;8.13;57.94
25232;BME280;13176;51.140;6.290;2023-04-06T05:53:53;100937.81;;;7.94;58.43
25232;BME280;13176;51.140;6.290;2023-04-06T05:56:20;100921.34;;;7.91;58.42
25232;BME280;13176;51.140;6.290;2023-04-06T05:58:46;100969.88;;;8.34;58.84
25232;BME280;13176;51.140;6.290;2023-04-06T06:01:12;100873.72;;;7.79;58.43
25232;BME280;13176;51.140;6.290;2023-04-06T06:03:39;100865.06;;;7.88;58.82
25232;BME280;13176;51.140;6.290;2023-04-06T06:06:05;100896.25;;;8.18;57.85
25232;BME280;13176;51.140;6.290;2023-04-06T06:08:32;100979.34;;;8.75;57.48
25232;BME280;13176;51.140;6.290;2023-04-06T06:10:58;100937.78;;;8.45;57.52
25232;BME280;13176;51.140;6.290;2023-04-06T06:13:25;100971.53;;;8.83;57.66
25232;BME280;13176;51.140;6.290;2023-04-06T06:15:51;100949.03;;;8.65;58.72
25232;BME280;13176;51.140;6.290;2023-04-06T06:18:18;100893.59;;;8.45;58.40
25232;BME280;13176;51.140;6.290;2023-04-06T06:20:44;100902.25;;;8.53;57.86
25232;BME280;13176;51.140;6.290;2023-04-06T06:23:11;100892.72;;;8.46;57.99
25232;BME280;13176;51.140;6.290;2023-04-06T06:25:37;100875.38;;;8.57;56.69
25232;BME280;13176;51.140;6.290;2023-04-06T06:28:04;100948.91;;;9.02;55.69
25232;BME280;13176;51.140;6.290;2023-04-06T06:30:30;100966.22;;;9.15;55.78
25232;BME280;13176;51.140;6.290;2023-04-06T06:32:56;100833.81;;;8.45;54.58
25232;BME280;13176;51.140;6.290;2023-04-06T06:35:23;100899.56;;;8.77;54.27
25232;BME280;13176;51.140;6.290;2023-04-06T06:37:50;100889.19;;;8.70;54.30
25232;BME280;13176;51.140;6.290;2023-04-06T06:40:16;100908.25;;;8.76;54.31
25232;BME280;13176;51.140;6.290;2023-04-06T06:42:44;100929.00;;;8.97;53.26
25232;BME280;13176;51.140;6.290;2023-04-06T06:45:10;100974.81;;;9.37;54.09
25232;BME280;13176;51.140;6.290;2023-04-06T06:47:37;100916.88;;;8.90;55.50
25232;BME280;13176;51.140;6.290;2023-04-06T06:50:04;100932.38;;;9.11;55.79
25232;BME280;13176;51.140;6.290;2023-04-06T06:52:30;100948.84;;;9.26;55.33
25232;BME280;13176;51.140;6.290;2023-04-06T06:54:57;100934.06;;;9.30;55.94
25232;BME280;13176;51.140;6.290;2023-04-06T06:57:25;100966.16;;;9.35;57.39
25232;BME280;13176;51.140;6.290;2023-04-06T06:59:52;100951.34;;;9.46;56.49
25232;BME280;13176;51.140;6.290;2023-04-06T07:02:18;100934.78;;;9.54;56.64
25232;BME280;13176;51.140;6.290;2023-04-06T07:04:47;100938.16;;;9.73;56.14
25232;BME280;13176;51.140;6.290;2023-04-06T07:07:14;100946.72;;;9.87;56.40
25232;BME280;13176;51.140;6.290;2023-04-06T07:09:41;100945.81;;;9.94;54.92
25232;BME280;13176;51.140;6.290;2023-04-06T07:12:07;100947.53;;;10.01;55.19
25232;BME280;13176;51.140;6.290;2023-04-06T07:14:34;100897.38;;;9.66;54.66
25232;BME280;13176;51.140;6.290;2023-04-06T07:17:00;100940.59;;;9.91;54.82
25232;BME280;13176;51.140;6.290;2023-04-06T07:19:26;100925.84;;;9.94;54.97
25232;BME280;13176;51.140;6.290;2023-04-06T07:21:53;100950.06;;;10.08;55.15
25232;BME280;13176;51.140;6.290;2023-04-06T07:24:19;100937.06;;;10.05;55.90
25232;BME280;13176;51.140;6.290;2023-04-06T07:26:46;100912.94;;;9.78;55.92
25232;BME280;13176;51.140;6.290;2023-04-06T07:29:12;100904.13;;;9.91;55.10
25232;BME280;13176;51.140;6.290;2023-04-06T07:31:38;100923.09;;;10.14;54.90
25232;BME280;13176;51.140;6.290;2023-04-06T07:34:05;100950.59;;;10.46;54.82
25232;BME280;13176;51.140;6.290;2023-04-06T07:36:32;100939.50;;;10.26;54.61
25232;BME280;13176;51.140;6.290;2023-04-06T07:38:58;100963.50;;;10.59;54.26
25232;BME280;13176;51.140;6.290;2023-04-06T07:41:25;100928.00;;;10.46;53.81
25232;BME280;13176;51.140;6.290;2023-04-06T07:43:51;100920.91;;;10.57;54.98
25232;BME280;13176;51.140;6.290;2023-04-06T07:46:18;100960.63;;;10.85;55.39
25232;BME280;13176;51.140;6.290;2023-04-06T07:48:44;100879.28;;;10.48;54.60
25232;BME280;13176;51.140;6.290;2023-04-06T07:51:10;100936.28;;;10.87;55.33
25232;BME280;13176;51.140;6.290;2023-04-06T07:53:40;100944.72;;;11.09;54.37
25232;BME280;13176;51.140;6.290;2023-04-06T07:56:06;100947.25;;;11.12;53.75
25232;BME280;13176;51.140;6.290;2023-04-06T07:58:33;100948.03;;;11.21;53.42
25232;BME280;13176;51.140;6.290;2023-04-06T08:01:01;100894.31;;;11.02;54.19
25232;BME280;13176;51.140;6.290;2023-04-06T08:03:27;100927.19;;;11.18;54.03
25232;BME280;13176;51.140;6.290;2023-04-06T08:05:54;100949.44;;;11.46;53.58
25232;BME280;13176;51.140;6.290;2023-04-06T08:08:21;100890.66;;;11.15;53.11
25232;BME280;13176;51.140;6.290;2023-04-06T08:10:48;100918.25;;;11.34;52.02
25232;BME280;13176;51.140;6.290;2023-04-06T08:13:15;100947.59;;;11.57;52.99
25232;BME280;13176;51.140;6.290;2023-04-06T08:15:42;100909.59;;;11.29;53.24
25232;BME280;13176;51.140;6.290;2023-04-06T08:18:08;100891.28;;;11.32;51.87
25232;BME280;13176;51.140;6.290;2023-04-06T08:20:35;100929.25;;;11.60;51.13
25232;BME280;13176;51.140;6.290;2023-04-06T08:23:02;100936.97;;;11.66;51.50
25232;BME280;13176;51.140;6.290;2023-04-06T08:25:29;100949.75;;;11.87;51.98
25232;BME280;13176;51.140;6.290;2023-04-06T08:27:55;100896.16;;;11.57;53.08
25232;BME280;13176;51.140;6.290;2023-04-06T08:30:22;100836.44;;;11.32;52.20
25232;BME280;13176;51.140;6.290;2023-04-06T08:32:48;100838.91;;;11.42;52.71
25232;BME280;13176;51.140;6.290;2023-04-06T08:35:15;100909.81;;;11.77;52.54
25232;BME280;13176;51.140;6.290;2023-04-06T08:37:41;100908.81;;;11.86;51.67
25232;BME280;13176;51.140;6.290;2023-04-06T08:40:08;100936.34;;;12.08;52.29
25232;BME280;13176;51.140;6.290;2023-04-06T08:42:39;100814.47;;;11.45;50.86
25232;BME280;13176;51.140;6.290;2023-04-06T08:45:08;100915.47;;;12.05;52.38
25232;BME280;13176;51.140;6.290;2023-04-06T08:47:36;100768.56;;;11.29;51.91
25232;BME280;13176;51.140;6.290;2023-04-06T08:50:07;100905.75;;;12.13;51.66
25232;BME280;13176;51.140;6.290;2023-04-06T08:52:35;100839.09;;;11.85;51.06
25232;BME280;13176;51.140;6.290;2023-04-06T08:55:02;100823.53;;;11.79;50.54
25232;BME280;13176;51.140;6.290;2023-04-06T08:57:30;100932.94;;;12.54;51.10
25232;BME280;13176;51.140;6.290;2023-04-06T08:59:59;100936.78;;;12.80;51.72
25232;BME280;13176;51.140;6.290;2023-04-06T09:02:27;100876.19;;;12.54;50.65
25232;BME280;13176;51.140;6.290;2023-04-06T09:04:53;100808.81;;;12.22;51.05
25232;BME280;13176;51.140;6.290;2023-04-06T09:07:21;100865.06;;;12.44;51.23
25232;BME280;13176;51.140;6.290;2023-04-06T09:09:47;100832.97;;;12.36;50.75
25232;BME280;13176;51.140;6.290;2023-04-06T09:12:28;100908.75;;;12.85;49.86
25232;BME280;13176;51.140;6.290;2023-04-06T09:14:55;100923.31;;;13.00;50.28
25232;BME280;13176;51.140;6.290;2023-04-06T09:17:29;100940.41;;;13.19;50.75
25232;BME280;13176;51.140;6.290;2023-04-06T09:19:56;100881.72;;;12.85;50.96
25232;BME280;13176;51.140;6.290;2023-04-06T09:22:23;100839.25;;;12.69;51.45
25232;BME280;13176;51.140;6.290;2023-04-06T09:24:53;100868.44;;;12.95;51.50
25232;BME280;13176;51.140;6.290;2023-04-06T09:27:34;100819.72;;;12.85;50.54
25232;BME280;13176;51.140;6.290;2023-04-06T09:30:11;100762.63;;;12.61;51.05
25232;BME280;13176;51.140;6.290;2023-04-06T09:32:50;100941.50;;;13.86;52.73
25232;BME280;13176;51.140;6.290;2023-04-06T09:35:19;100939.13;;;14.13;50.06
25232;BME280;13176;51.140;6.290;2023-04-06T09:37:48;100877.78;;;13.46;47.29
25232;BME280;13176;51.140;6.290;2023-04-06T09:40:15;100805.78;;;12.83;48.09
25232;BME280;13176;51.140;6.290;2023-04-06T09:42:47;100817.91;;;12.90;49.05
25232;BME280;13176;51.140;6.290;2023-04-06T09:45:14;100801.63;;;13.14;48.72
25232;BME280;13176;51.140;6.290;2023-04-06T09:47:43;100853.25;;;13.49;47.28
25232;BME280;13176;51.140;6.290;2023-04-06T09:50:12;100925.50;;;13.98;47.07
25232;BME280;13176;51.140;6.290;2023-04-06T09:52:50;100921.53;;;13.80;47.12
25232;BME280;13176;51.140;6.290;2023-04-06T09:55:30;100852.72;;;13.71;46.25
25232;BME280;13176;51.140;6.290;2023-04-06T09:58:07;100926.44;;;13.95;46.73
25232;BME280;13176;51.140;6.290;2023-04-06T10:00:50;100940.38;;;14.34;46.78
25232;BME280;13176;51.140;6.290;2023-04-06T10:06:11;100938.00;;;14.57;45.49
25232;BME280;13176;51.140;6.290;2023-04-06T10:08:42;100844.03;;;14.02;44.99
25232;BME280;13176;51.140;6.290;2023-04-06T10:11:12;100884.19;;;14.41;45.07
25232;BME280;13176;51.140;6.290;2023-04-06T10:13:38;100901.75;;;14.71;45.35
25232;BME280;13176;51.140;6.290;2023-04-06T10:16:05;100961.84;;;14.82;45.95
25232;BME280;13176;51.140;6.290;2023-04-06T10:18:33;100831.25;;;14.24;45.48
25232;BME280;13176;51.140;6.290;2023-04-06T10:21:14;100740.59;;;13.47;45.98
25232;BME280;13176;51.140;6.290;2023-04-06T10:23:59;100913.81;;;14.46;46.54
25232;BME280;13176;51.140;6.290;2023-04-06T10:26:27;100896.41;;;14.42;46.29
25232;BME280;13176;51.140;6.290;2023-04-06T10:28:54;100935.66;;;14.80;45.92
25232;BME280;13176;51.140;6.290;2023-04-06T10:31:25;100813.88;;;13.85;46.62
25232;BME280;13176;51.140;6.290;2023-04-06T10:33:57;100919.53;;;14.61;44.02
25232;BME280;13176;51.140;6.290;2023-04-06T10:36:26;100860.50;;;14.09;43.15
25232;BME280;13176;51.140;6.290;2023-04-06T10:38:56;100797.69;;;14.03;42.88
25232;BME280;13176;51.140;6.290;2023-04-06T10:41:24;100933.09;;;14.77;42.23
25232;BME280;13176;51.140;6.290;2023-04-06T10:43:57;100872.28;;;14.28;41.01
25232;BME280;13176;51.140;6.290;2023-04-06T10:46:25;100924.38;;;15.06;41.30
25232;BME280;13176;51.140;6.290;2023-04-06T10:48:52;100922.47;;;15.11;40.48
25232;BME280;13176;51.140;6.290;2023-04-06T10:51:24;100819.66;;;15.49;40.27
25232;BME280;13176;51.140;6.290;2023-04-06T10:53:56;100795.09;;;15.76;38.54
25232;BME280;13176;51.140;6.290;2023-04-06T10:56:24;100823.72;;;16.37;37.75
25232;BME280;13176;51.140;6.290;2023-04-06T10:58:53;100917.44;;;17.61;36.45
25232;BME280;13176;51.140;6.290;2023-04-06T11:01:23;100923.97;;;17.28;38.63
25232;BME280;13176;51.140;6.290;2023-04-06T11:03:56;100809.47;;;15.92;40.25
25232;BME280;13176;51.140;6.290;2023-04-06T11:06:27;100929.44;;;16.25;40.11
25232;BME280;13176;51.140;6.290;2023-04-06T11:08:55;100932.34;;;16.17;40.70
25232;BME280;13176;51.140;6.290;2023-04-06T11:11:25;100807.25;;;15.54;41.39
25232;BME280;13176;51.140;6.290;2023-04-06T11:13:59;100830.56;;;15.08;42.38
25232;BME280;13176;51.140;6.290;2023-04-06T11:16:27;100796.56;;;14.45;42.77
25232;BME280;13176;51.140;6.290;2023-04-06T11:24:14;100939.19;;;14.79;42.99
25232;BME280;13176;51.140;6.290;2023-04-06T11:26:44;100916.91;;;14.60;43.72
25232;BME280;13176;51.140;6.290;2023-04-06T11:29:18;100945.09;;;14.55;44.27
25232;BME280;13176;51.140;6.290;2023-04-06T11:31:47;100900.31;;;14.59;44.29
25232;BME280;13176;51.140;6.290;2023-04-06T11:34:19;100856.44;;;14.31;43.40
25232;BME280;13176;51.140;6.290;2023-04-06T11:36:58;100929.19;;;14.91;43.74
25232;BME280;13176;51.140;6.290;2023-04-06T11:39:26;100927.94;;;15.36;44.47
25232;BME280;13176;51.140;6.290;2023-04-06T11:42:00;100883.13;;;15.08;43.21
25232;BME280;13176;51.140;6.290;2023-04-06T11:44:37;100921.44;;;15.17;43.79
25232;BME280;13176;51.140;6.290;2023-04-06T11:47:09;100824.38;;;14.52;45.43
25232;BME280;13176;51.140;6.290;2023-04-06T11:49:40;100825.91;;;14.89;43.88
25232;BME280;13176;51.140;6.290;2023-04-06T11:52:22;100897.50;;;15.26;43.99
25232;BME280;13176;51.140;6.290;2023-04-06T11:54:50;100918.47;;;15.58;45.21
25232;BME280;13176;51.140;6.290;2023-04-06T11:57:18;100921.75;;;15.37;44.42
25232;BME280;13176;51.140;6.290;2023-04-06T11:59:45;100822.19;;;14.96;44.85
25232;BME280;13176;51.140;6.290;2023-04-06T12:02:11;100876.47;;;15.27;43.72
25232;BME280;13176;51.140;6.290;2023-04-06T12:04:38;100802.75;;;14.42;45.14
25232;BME280;13176;51.140;6.290;2023-04-06T12:07:05;100884.13;;;15.04;45.75
25232;BME280;13176;51.140;6.290;2023-04-06T12:09:31;100908.66;;;14.43;47.87
25232;BME280;13176;51.140;6.290;2023-04-06T12:11:58;100814.59;;;14.25;48.48
25232;BME280;13176;51.140;6.290;2023-04-06T12:14:31;100914.63;;;14.80;49.48
25232;BME280;13176;51.140;6.290;2023-04-06T12:16:58;100920.66;;;14.83;49.19
25232;BME280;13176;51.140;6.290;2023-04-06T12:19:24;100910.44;;;14.73;48.65
25232;BME280;13176;51.140;6.290;2023-04-06T12:21:55;100901.78;;;14.37;49.16
25232;BME280;13176;51.140;6.290;2023-04-06T12:24:23;100917.69;;;13.96;50.73
25232;BME280;13176;51.140;6.290;2023-04-06T12:26:50;100927.03;;;14.06;52.50
25232;BME280;13176;51.140;6.290;2023-04-06T12:29:24;100917.56;;;14.01;54.28
25232;BME280;13176;51.140;6.290;2023-04-06T12:31:51;100839.88;;;13.61;55.89
25232;BME280;13176;51.140;6.290;2023-04-06T12:34:19;100923.84;;;13.94;58.00
25232;BME280;13176;51.140;6.290;2023-04-06T12:36:45;100907.13;;;13.98;57.42
25232;BME280;13176;51.140;6.290;2023-04-06T12:39:11;100815.22;;;13.31;59.27
25232;BME280;13176;51.140;6.290;2023-04-06T12:41:38;100924.50;;;13.67;59.99
25232;BME280;13176;51.140;6.290;2023-04-06T12:44:07;100901.13;;;13.17;61.17
25232;BME280;13176;51.140;6.290;2023-04-06T12:46:33;100885.41;;;13.17;62.58
25232;BME280;13176;51.140;6.290;2023-04-06T12:49:00;100899.84;;;13.36;63.90
25232;BME280;13176;51.140;6.290;2023-04-06T12:51:27;100867.06;;;13.19;64.27
25232;BME280;13176;51.140;6.290;2023-04-06T12:53:54;100816.09;;;12.92;63.70
25232;BME280;13176;51.140;6.290;2023-04-06T12:56:20;100819.94;;;12.75;64.70
25232;BME280;13176;51.140;6.290;2023-04-06T12:58:50;100669.06;;;11.91;66.57
25232;BME280;13176;51.140;6.290;2023-04-06T13:01:17;100781.25;;;12.87;65.19
25232;BME280;13176;51.140;6.290;2023-04-06T13:03:44;100860.25;;;13.48;64.20
25232;BME280;13176;51.140;6.290;2023-04-06T13:06:10;100868.34;;;13.39;63.90